Time;durP1;ratioP1;P1;durP2;ratioP2;P2;SDS_P1;SDS_P2;PMS_P1;PMS_P2;Temp;Humidity;BMP_temperature;BMP_pressure;BME280_temperature;BME280_humidity;BME280_pressure;Samples;Min_cycle;Max_cycle;Signal;HPM_P1;HPM_P2
2022/01/01 00:02:25;;;;;;;123.40;65.35;;;;;;;12.88;100.00;102195.06;5030345;28;20441;-73
2022/01/01 00:04:50;;;;;;;144.32;73.10;;;;;;;12.83;100.00;102189.66;5036526;28;20198;-71
2022/01/01 00:07:17;;;;;;;126.85;68.15;;;;;;;12.87;100.00;102193.44;5029969;28;20580;-72
2022/01/01 00:09:43;;;;;;;119.57;62.03;;;;;;;12.78;100.00;102197.91;5014551;28;20056;-73
2022/01/01 00:12:10;;;;;;;120.78;62.30;;;;;;;12.77;100.00;102197.09;5048444;28;20036;-72
2022/01/01 00:14:36;;;;;;;119.95;62.40;;;;;;;12.75;100.00;102203.94;5034223;28;20032;-73
2022/01/01 00:17:02;;;;;;;119.53;62.35;;;;;;;12.72;100.00;102201.78;5029558;28;20114;-72
2022/01/01 00:19:27;;;;;;;113.15;61.33;;;;;;;12.82;100.00;102207.16;5035814;28;20136;-72
2022/01/01 00:21:53;;;;;;;126.50;67.22;;;;;;;12.81;100.00;102213.75;5018775;28;20114;-73
2022/01/01 00:24:18;;;;;;;121.93;66.80;;;;;;;12.77;100.00;102215.41;5041492;28;20049;-73
2022/01/01 00:26:44;;;;;;;148.20;70.88;;;;;;;12.86;100.00;102211.00;5036121;28;20914;-72
2022/01/01 00:29:09;;;;;;;159.40;79.78;;;;;;;12.78;100.00;102217.06;5035194;28;20692;-73
2022/01/01 00:31:35;;;;;;;132.52;69.47;;;;;;;12.85;100.00;102217.53;5020542;28;20041;-74
2022/01/01 00:34:00;;;;;;;140.80;70.60;;;;;;;12.78;100.00;102209.66;5032593;28;20549;-71
2022/01/01 00:36:26;;;;;;;128.60;66.68;;;;;;;12.82;100.00;102215.38;5041121;28;20055;-72
2022/01/01 00:38:52;;;;;;;135.70;66.10;;;;;;;12.81;100.00;102219.22;5028413;28;20099;-72
2022/01/01 00:41:18;;;;;;;126.70;64.35;;;;;;;12.83;100.00;102209.63;5041214;28;20062;-73
2022/01/01 00:43:43;;;;;;;130.75;64.95;;;;;;;12.83;100.00;102211.56;5027604;28;20264;-73
2022/01/01 00:46:09;;;;;;;120.90;61.67;;;;;;;12.83;100.00;102208.81;5032627;28;20123;-72
2022/01/01 00:48:34;;;;;;;129.88;63.08;;;;;;;12.80;100.00;102214.84;5026680;28;20033;-72
2022/01/01 00:51:00;;;;;;;132.80;64.90;;;;;;;12.77;100.00;102229.09;5037969;28;20032;-73
2022/01/01 00:53:25;;;;;;;130.38;66.03;;;;;;;12.82;100.00;102215.38;5033619;28;20702;-72
2022/01/01 00:55:51;;;;;;;130.13;62.05;;;;;;;12.73;100.00;102228.03;5020514;28;20142;-73
2022/01/01 00:58:17;;;;;;;123.75;61.38;;;;;;;12.77;100.00;102226.34;5031445;28;20056;-73
2022/01/01 01:00:43;;;;;;;121.65;59.78;;;;;;;12.73;100.00;102233.50;5032075;28;20446;-72
2022/01/01 01:03:09;;;;;;;111.75;60.47;;;;;;;12.75;100.00;102226.66;5024799;28;20032;-72
2022/01/01 01:05:34;;;;;;;121.97;61.13;;;;;;;12.70;100.00;102223.94;5025355;28;20554;-72
2022/01/01 01:07:59;;;;;;;117.80;61.28;;;;;;;12.72;100.00;102226.41;5023955;28;20116;-72
2022/01/01 01:10:25;;;;;;;114.03;59.55;;;;;;;12.67;100.00;102225.34;5029284;28;20413;-73
2022/01/01 01:12:52;;;;;;;111.05;56.55;;;;;;;12.71;100.00;102224.75;5029237;28;20836;-72
2022/01/01 01:15:18;;;;;;;121.15;56.63;;;;;;;12.74;100.00;102221.47;5028707;28;20486;-72
2022/01/01 01:17:48;;;;;;;114.40;55.80;;;;;;;12.74;100.00;102230.50;5015782;28;20361;-73
2022/01/01 01:20:14;;;;;;;112.72;54.55;;;;;;;12.78;100.00;102231.56;5033726;28;20137;-73
2022/01/01 01:22:40;;;;;;;113.05;53.50;;;;;;;12.74;100.00;102229.66;5035131;28;20748;-73
2022/01/01 01:25:06;;;;;;;109.72;54.30;;;;;;;12.71;100.00;102224.75;5035022;28;20417;-72
2022/01/01 01:27:34;;;;;;;98.15;51.10;;;;;;;12.69;100.00;102230.53;5034286;28;20037;-72
2022/01/01 01:29:59;;;;;;;116.38;52.05;;;;;;;12.72;100.00;102227.22;5034102;28;20065;-72
2022/01/01 01:32:25;;;;;;;103.35;49.90;;;;;;;12.64;100.00;102231.38;5034495;28;20438;-72
2022/01/01 01:34:51;;;;;;;109.57;49.20;;;;;;;12.64;100.00;102242.31;5034290;28;20041;-72
2022/01/01 01:37:16;;;;;;;105.07;48.78;;;;;;;12.69;100.00;102234.09;5032237;28;20780;-73
2022/01/01 01:39:41;;;;;;;98.45;48.53;;;;;;;12.63;100.00;102240.69;5031636;28;20506;-73
2022/01/01 01:42:07;;;;;;;95.03;46.88;;;;;;;12.72;100.00;102248.31;5032116;28;20045;-72
2022/01/01 01:44:41;;;;;;;110.13;50.47;;;;;;;12.65;100.00;102238.50;5034572;28;20096;-72
2022/01/01 01:47:14;;;;;;;107.03;49.80;;;;;;;12.62;100.00;102243.69;5034200;28;20040;-74
2022/01/01 01:49:40;;;;;;;107.78;51.42;;;;;;;12.63;100.00;102240.69;5020757;28;20623;-74
2022/01/01 01:52:07;;;;;;;108.50;51.10;;;;;;;12.64;100.00;102247.78;5017420;28;20052;-72
2022/01/01 01:54:33;;;;;;;100.70;48.20;;;;;;;12.66;100.00;102242.88;5033908;28;20066;-73
2022/01/01 01:56:58;;;;;;;105.30;50.08;;;;;;;12.59;100.00;102242.34;5033935;28;20112;-71
2022/01/01 01:59:24;;;;;;;107.93;50.75;;;;;;;12.60;100.00;102233.06;5032124;28;20404;-73
2022/01/01 02:01:50;;;;;;;106.32;48.97;;;;;;;12.65;100.00;102238.50;5031056;28;20045;-72
2022/01/01 02:04:16;;;;;;;102.85;47.70;;;;;;;12.63;100.00;102248.09;5013701;28;20566;-72
2022/01/01 02:06:42;;;;;;;96.50;44.75;;;;;;;12.71;100.00;102252.94;5013198;28;20037;-72
2022/01/01 02:09:10;;;;;;;102.95;47.33;;;;;;;12.60;100.00;102249.47;5013642;28;20038;-72
2022/01/01 02:11:35;;;;;;;93.53;45.30;;;;;;;12.64;100.00;102256.00;5014465;28;20493;-72
2022/01/01 02:14:09;;;;;;;101.57;47.75;;;;;;;12.48;100.00;102259.94;5014391;28;20052;-73
2022/01/01 02:16:55;;;;;;;104.32;47.55;;;;;;;12.59;100.00;102261.50;5012601;28;20356;-73
2022/01/01 02:19:25;;;;;;;99.60;47.63;;;;;;;12.61;100.00;102267.53;5014039;28;20044;-72
2022/01/01 02:21:56;;;;;;;93.63;46.85;;;;;;;12.47;100.00;102258.28;5012451;28;20053;-72
2022/01/01 02:24:22;;;;;;;107.63;49.25;;;;;;;12.54;100.00;102267.03;5012641;28;20437;-72
2022/01/01 02:26:47;;;;;;;93.45;47.72;;;;;;;12.55;100.00;102268.66;5013589;28;20052;-73
2022/01/01 02:29:13;;;;;;;108.00;50.95;;;;;;;12.56;100.00;102267.53;5013652;28;20033;-74
2022/01/01 02:31:39;;;;;;;107.32;51.15;;;;;;;12.55;100.00;102260.44;5013695;28;20615;-73
2022/01/01 02:34:06;;;;;;;112.25;53.00;;;;;;;12.57;100.00;102271.13;5014240;28;20041;-73
2022/01/01 02:36:35;;;;;;;117.70;54.58;;;;;;;12.51;100.00;102264.00;5013410;28;20517;-73
2022/01/01 02:39:08;;;;;;;132.65;56.58;;;;;;;12.53;100.00;102256.34;5012895;28;20707;-72
2022/01/01 02:41:34;;;;;;;115.88;55.25;;;;;;;12.57;100.00;102258.25;4994872;28;20041;-74
2022/01/01 02:43:59;;;;;;;117.15;56.75;;;;;;;12.57;100.00;102252.78;5012071;28;20045;-72
2022/01/01 02:46:24;;;;;;;105.55;52.50;;;;;;;12.45;100.00;102252.31;5012173;28;20045;-74
2022/01/01 02:48:50;;;;;;;102.78;53.50;;;;;;;12.54;100.00;102258.00;4995086;28;20490;-72
2022/01/01 02:51:15;;;;;;;106.57;51.92;;;;;;;12.47;100.00;102258.28;5013691;28;20034;-73
2022/01/01 02:53:42;;;;;;;119.38;54.67;;;;;;;12.50;100.00;102260.47;5029166;28;20048;-73
2022/01/01 02:56:07;;;;;;;113.95;54.55;;;;;;;12.60;100.00;102265.91;5037217;28;20606;-73
2022/01/01 02:58:32;;;;;;;116.15;56.17;;;;;;;12.67;100.00;102274.59;5037791;28;20033;-73
2022/01/01 03:00:58;;;;;;;110.05;54.92;;;;;;;12.55;100.00;102265.91;5038000;28;20041;-71
2022/01/01 03:03:23;;;;;;;115.22;53.80;;;;;;;12.63;100.00;102270.00;5021766;28;20545;-71
2022/01/01 03:05:49;;;;;;;120.00;55.15;;;;;;;12.55;100.00;102268.66;5017580;28;20053;-73
2022/01/01 03:08:14;;;;;;;123.05;57.25;;;;;;;12.59;100.00;102269.72;5016941;28;20037;-72
2022/01/01 03:10:39;;;;;;;103.88;53.83;;;;;;;12.55;100.00;102259.63;5016424;28;20045;-73
2022/01/01 03:13:05;;;;;;;115.15;53.88;;;;;;;12.53;100.00;102259.91;5016669;28;20053;-73
2022/01/01 03:15:30;;;;;;;111.90;52.72;;;;;;;12.68;100.00;102257.09;5017369;28;20353;-72
2022/01/01 03:17:56;;;;;;;119.25;52.72;;;;;;;12.60;100.00;102260.41;5017733;28;20037;-71
2022/01/01 03:20:22;;;;;;;123.40;52.42;;;;;;;12.58;100.00;102251.66;5016771;28;20502;-73
2022/01/01 03:22:47;;;;;;;111.80;52.63;;;;;;;12.47;100.00;102239.13;5017538;28;20050;-72
2022/01/01 03:25:12;;;;;;;107.68;50.53;;;;;;;12.50;100.00;102232.28;5018554;28;20046;-72
2022/01/01 03:27:38;;;;;;;104.65;52.30;;;;;;;12.53;100.00;102232.53;5016896;28;20056;-72
2022/01/01 03:30:04;;;;;;;104.68;47.95;;;;;;;12.36;100.00;102235.66;5018147;28;20076;-71
2022/01/01 03:32:29;;;;;;;99.25;47.00;;;;;;;12.40;100.00;102236.72;5018251;28;20037;-71
2022/01/01 03:34:56;;;;;;;102.72;48.38;;;;;;;12.43;100.00;102240.81;5019110;28;20508;-72
2022/01/01 03:37:21;;;;;;;102.63;47.55;;;;;;;12.40;100.00;102241.38;5019048;28;20418;-72
2022/01/01 03:39:47;;;;;;;107.60;47.58;;;;;;;12.40;100.00;102233.19;5017515;28;20041;-72
2022/01/01 03:42:12;;;;;;;102.43;49.03;;;;;;;12.43;100.00;102229.88;5017096;28;20038;-73
2022/01/01 03:44:37;;;;;;;91.45;44.60;;;;;;;12.45;100.00;102244.91;5017649;28;20049;-73
2022/01/01 03:47:09;;;;;;;96.45;45.35;;;;;;;12.38;100.00;102240.84;5017080;28;20045;-72
2022/01/01 03:49:36;;;;;;;99.25;46.00;;;;;;;12.45;100.00;102236.69;5027252;28;20083;-73
2022/01/01 03:52:02;;;;;;;91.78;43.78;;;;;;;12.39;100.00;102240.56;5034376;28;20509;-72
2022/01/01 03:54:28;;;;;;;95.88;41.47;;;;;;;12.39;100.00;102234.25;5017201;28;20128;-72
2022/01/01 03:56:53;;;;;;;97.32;43.55;;;;;;;12.48;100.00;102229.84;5025130;28;20465;-72
2022/01/01 03:59:20;;;;;;;98.72;42.25;;;;;;;12.46;100.00;102226.56;5035346;28;20045;-72
2022/01/01 04:01:46;;;;;;;86.70;41.70;;;;;;;12.33;100.00;102216.25;5036594;28;20747;-72
2022/01/01 04:04:12;;;;;;;96.45;41.72;;;;;;;12.39;100.00;102217.84;5035733;28;20044;-71
2022/01/01 04:06:37;;;;;;;87.95;38.28;;;;;;;12.39;100.00;102207.75;5036552;28;20394;-74
2022/01/01 04:09:03;;;;;;;98.63;41.47;;;;;;;12.34;100.00;102205.03;5036861;28;20041;-71
2022/01/01 04:11:28;;;;;;;103.82;39.05;;;;;;;12.38;100.00;102222.50;5035455;28;20068;-71
2022/01/01 04:13:53;;;;;;;94.00;38.00;;;;;;;12.35;100.00;102222.25;5036607;28;20060;-71
2022/01/01 04:16:20;;;;;;;95.72;36.60;;;;;;;12.40;100.00;102224.97;5034469;28;20054;-72
2022/01/01 04:18:46;;;;;;;84.05;34.08;;;;;;;12.41;100.00;102216.47;5034371;28;20062;-71
2022/01/01 04:21:12;;;;;;;75.35;33.92;;;;;;;12.41;100.00;102223.84;5018586;28;20033;-73
2022/01/01 04:23:43;;;;;;;74.93;33.50;;;;;;;12.42;100.00;102229.06;5018623;28;20594;-73
2022/01/01 04:26:09;;;;;;;79.38;32.25;;;;;;;12.41;100.00;102226.59;5017810;28;20045;-72
2022/01/01 04:28:36;;;;;;;72.10;29.48;;;;;;;12.48;100.00;102229.00;5035876;28;20076;-72
2022/01/01 04:31:02;;;;;;;60.33;29.63;;;;;;;12.37;100.00;102225.53;5036921;28;20040;-71
2022/01/01 04:33:27;;;;;;;69.10;27.65;;;;;;;12.44;100.00;102229.56;5036246;28;20033;-73
2022/01/01 04:35:52;;;;;;;63.70;28.48;;;;;;;12.43;100.00;102227.94;5035475;28;20056;-71
2022/01/01 04:38:35;;;;;;;87.28;27.55;;;;;;;12.42;100.00;102229.06;5035239;28;20121;-72
2022/01/01 04:41:02;;;;;;;62.88;26.80;;;;;;;12.40;100.00;102230.44;5034547;28;20077;-72
2022/01/01 04:43:27;;;;;;;64.43;25.38;;;;;;;12.39;100.00;102235.09;5035310;28;20053;-72
2022/01/01 04:45:53;;;;;;;66.80;25.23;;;;;;;12.48;100.00;102237.22;5035525;28;20114;-72
2022/01/01 04:48:18;;;;;;;63.25;23.67;;;;;;;12.48;100.00;102237.22;5035197;28;20449;-72
2022/01/01 04:50:44;;;;;;;63.55;24.20;;;;;;;12.48;100.00;102240.78;5015882;28;20070;-73
2022/01/01 04:53:14;;;;;;;54.00;23.15;;;;;;;12.44;100.00;102242.44;5026498;28;20443;-73
2022/01/01 04:55:40;;;;;;;52.08;22.02;;;;;;;12.45;100.00;102244.09;5033254;28;20056;-72
2022/01/01 04:58:05;;;;;;;62.63;23.27;;;;;;;12.38;100.00;102240.84;5035461;28;20508;-73
2022/01/01 05:00:30;;;;;;;49.53;21.92;;;;;;;12.47;100.00;102241.88;5036171;28;20260;-72
2022/01/01 05:02:56;;;;;;;56.33;23.02;;;;;;;12.52;100.00;102239.13;5025185;28;20044;-73
2022/01/01 05:05:21;;;;;;;57.10;20.75;;;;;;;12.46;100.00;102240.25;5016376;28;20123;-72
2022/01/01 05:07:47;;;;;;;56.28;22.05;;;;;;;12.48;100.00;102232.59;5016217;28;20091;-73
2022/01/01 05:10:12;;;;;;;49.40;20.52;;;;;;;12.44;100.00;102236.97;5013512;28;20056;-72
2022/01/01 05:12:37;;;;;;;46.97;19.30;;;;;;;12.40;100.00;102239.47;5015354;28;20047;-71
2022/01/01 05:15:03;;;;;;;44.20;19.38;;;;;;;12.46;100.00;102245.72;5015304;28;20048;-72
2022/01/01 05:17:29;;;;;;;47.70;20.33;;;;;;;12.34;100.00;102237.84;5015874;28;20053;-72
2022/01/01 05:19:54;;;;;;;47.22;19.95;;;;;;;12.41;100.00;102243.00;5015482;28;20045;-72
2022/01/01 05:22:19;;;;;;;46.80;20.63;;;;;;;12.46;100.00;102241.06;5014314;28;20313;-72
2022/01/01 05:24:45;;;;;;;60.92;20.42;;;;;;;12.41;100.00;102240.28;5015197;28;20045;-73
2022/01/01 05:27:10;;;;;;;55.72;21.63;;;;;;;12.42;100.00;102244.63;5015313;28;20041;-72
2022/01/01 05:29:36;;;;;;;47.20;19.35;;;;;;;12.42;100.00;102234.53;5015417;28;20701;-72
2022/01/01 05:32:01;;;;;;;44.65;20.60;;;;;;;12.45;100.00;102238.63;5014772;28;20041;-73
2022/01/01 05:34:27;;;;;;;52.70;21.08;;;;;;;12.45;100.00;102227.69;5014784;28;20692;-72
2022/01/01 05:36:52;;;;;;;46.65;20.02;;;;;;;12.46;100.00;102234.78;5015124;28;20049;-71
2022/01/01 05:39:17;;;;;;;44.00;20.13;;;;;;;12.34;100.00;102237.84;5013636;28;20048;-71
2022/01/01 05:41:43;;;;;;;43.50;18.65;;;;;;;12.30;100.00;102230.47;5014399;28;20462;-72
2022/01/01 05:44:08;;;;;;;44.58;18.85;;;;;;;12.39;100.00;102224.16;5015150;28;20049;-72
2022/01/01 05:46:34;;;;;;;55.92;21.15;;;;;;;12.41;100.00;102226.59;5014837;28;20033;-72
2022/01/01 05:49:00;;;;;;;39.60;18.90;;;;;;;12.43;100.00;102230.69;5012406;28;20038;-73
2022/01/01 05:51:25;;;;;;;36.88;18.27;;;;;;;12.52;100.00;102233.66;5014119;28;20049;-72
2022/01/01 05:53:50;;;;;;;34.75;17.25;;;;;;;12.51;100.00;102236.66;5030186;28;20060;-72
2022/01/01 05:56:16;;;;;;;45.45;19.70;;;;;;;12.47;100.00;102236.41;5033766;28;20044;-72
2022/01/01 05:58:41;;;;;;;45.72;18.42;;;;;;;12.45;100.00;102233.97;5033590;28;20584;-72
2022/01/01 06:01:07;;;;;;;50.33;19.77;;;;;;;12.39;100.00;102229.63;5031314;28;20516;-71
2022/01/01 06:03:32;;;;;;;53.20;20.50;;;;;;;12.43;100.00;102238.09;5017466;28;20049;-73
2022/01/01 06:05:58;;;;;;;49.65;19.77;;;;;;;12.45;100.00;102235.88;5013933;28;20500;-71
2022/01/01 06:08:28;;;;;;;50.10;18.92;;;;;;;12.28;100.00;102232.69;5011906;28;20042;-73
2022/01/01 06:10:53;;;;;;;38.72;18.70;;;;;;;12.29;100.00;102226.13;5012861;28;20053;-73
2022/01/01 06:13:19;;;;;;;47.95;21.63;;;;;;;12.33;100.00;102230.72;5013980;28;20116;-74
2022/01/01 06:15:44;;;;;;;54.63;23.08;;;;;;;12.43;100.00;102227.94;5014558;28;20044;-73
2022/01/01 06:18:10;;;;;;;54.25;23.67;;;;;;;12.39;100.00;102226.03;5012598;28;20387;-71
2022/01/01 06:20:35;;;;;;;48.25;21.90;;;;;;;12.32;100.00;102225.56;5014356;28;20045;-73
2022/01/01 06:23:02;;;;;;;56.45;22.85;;;;;;;12.38;100.00;102218.94;5013505;28;20038;-73
2022/01/01 06:25:27;;;;;;;49.38;23.13;;;;;;;12.34;100.00;102231.56;5013612;28;20688;-73
2022/01/01 06:27:53;;;;;;;52.72;21.45;;;;;;;12.28;100.00;102228.03;5012395;28;20041;-72
2022/01/01 06:30:18;;;;;;;48.40;19.38;;;;;;;12.40;100.00;102238.66;5012819;28;20064;-72
2022/01/01 06:32:45;;;;;;;45.97;16.70;;;;;;;12.32;100.00;102244.69;5013715;28;20048;-72
2022/01/01 06:35:10;;;;;;;39.60;17.25;;;;;;;12.42;100.00;102241.91;5013062;28;20402;-73
2022/01/01 06:37:35;;;;;;;34.83;15.15;;;;;;;12.32;100.00;102239.22;5011975;28;20832;-72
2022/01/01 06:40:01;;;;;;;36.65;15.20;;;;;;;12.36;100.00;102240.28;5013929;28;20041;-73
2022/01/01 06:42:26;;;;;;;41.70;15.32;;;;;;;12.30;100.00;102235.94;5013009;28;20508;-72
2022/01/01 06:44:52;;;;;;;35.63;14.93;;;;;;;12.30;100.00;102249.63;5012709;28;20048;-73
2022/01/01 06:47:17;;;;;;;29.40;13.65;;;;;;;12.19;100.00;102257.06;5020201;28;20040;-73
2022/01/01 06:49:42;;;;;;;36.95;16.00;;;;;;;12.25;100.00;102261.41;5029180;28;20569;-73
2022/01/01 06:52:08;;;;;;;48.22;16.13;;;;;;;12.32;100.00;102242.78;5015302;28;20134;-73
2022/01/01 06:54:33;;;;;;;38.95;14.50;;;;;;;12.39;100.00;102250.66;5033099;28;20150;-73
2022/01/01 06:56:59;;;;;;;39.25;15.40;;;;;;;12.27;100.00;102242.78;5020412;28;20143;-73
2022/01/01 06:59:24;;;;;;;33.70;13.98;;;;;;;12.31;100.00;102232.13;5028929;28;20037;-72
2022/01/01 07:01:50;;;;;;;29.75;14.63;;;;;;;12.33;100.00;102241.66;5020321;28;20429;-72
2022/01/01 07:04:15;;;;;;;36.25;13.07;;;;;;;12.36;100.00;102241.13;5017027;28;20474;-72
2022/01/01 07:06:40;;;;;;;37.92;15.70;;;;;;;12.41;100.00;102253.94;5020817;28;20530;-73
2022/01/01 07:09:06;;;;;;;32.80;14.18;;;;;;;12.27;100.00;102264.69;5020370;28;20044;-72
2022/01/01 07:11:32;;;;;;;32.92;14.63;;;;;;;12.10;100.00;102254.09;5017900;28;20128;-71
2022/01/01 07:13:58;;;;;;;39.00;14.70;;;;;;;12.03;100.00;102259.03;5022137;28;20416;-72
2022/01/01 07:16:23;;;;;;;43.67;16.02;;;;;;;11.81;100.00;102255.78;5031506;28;20040;-73
2022/01/01 07:18:48;;;;;;;36.70;14.90;;;;;;;11.71;100.00;102260.19;5030902;28;20582;-72
2022/01/01 07:21:14;;;;;;;35.75;15.60;;;;;;;11.75;100.00;102268.63;5033313;28;20230;-73
2022/01/01 07:23:39;;;;;;;36.20;14.90;;;;;;;11.50;100.00;102267.59;5033402;28;20155;-73
2022/01/01 07:26:05;;;;;;;35.15;15.70;;;;;;;11.39;100.00;102281.53;5015014;28;20041;-72
2022/01/01 07:28:30;;;;;;;35.95;15.52;;;;;;;11.44;100.00;102278.81;5031484;28;20529;-72
2022/01/01 07:30:56;;;;;;;39.95;15.30;;;;;;;11.39;100.00;102276.06;5033689;28;20037;-73
2022/01/01 07:33:21;;;;;;;40.92;15.13;;;;;;;11.35;100.00;102288.66;5014581;28;20607;-73
2022/01/01 07:35:47;;;;;;;41.78;15.75;;;;;;;11.36;100.00;102293.00;5033732;28;20569;-73
2022/01/01 07:38:12;;;;;;;32.83;13.40;;;;;;;11.39;100.00;102293.28;5034541;28;20720;-72
2022/01/01 07:40:39;;;;;;;31.60;13.35;;;;;;;11.17;100.00;102295.44;5036440;28;20049;-73
2022/01/01 07:43:15;;;;;;;38.70;13.48;;;;;;;11.34;100.00;102306.94;5038129;28;20347;-72
2022/01/01 07:45:41;;;;;;;30.65;13.82;;;;;;;11.38;100.00;102302.56;5036243;28;20048;-72
2022/01/01 07:48:08;;;;;;;37.13;14.80;;;;;;;11.43;100.00;102299.00;5036871;28;20116;-72
2022/01/01 07:50:34;;;;;;;33.75;13.40;;;;;;;11.55;100.00;102299.56;5015841;28;20044;-73
2022/01/01 07:52:59;;;;;;;32.20;12.73;;;;;;;11.59;100.00;102297.91;5015329;28;20557;-72
2022/01/01 07:55:24;;;;;;;33.25;14.75;;;;;;;11.63;100.00;102290.78;5017770;28;20119;-71
2022/01/01 07:57:50;;;;;;;29.35;13.25;;;;;;;11.60;100.00;102288.59;5017744;28;20029;-72
2022/01/01 08:00:15;;;;;;;41.90;13.68;;;;;;;11.65;100.00;102285.88;5019881;28;20143;-73
2022/01/01 08:02:46;;;;;;;28.55;12.32;;;;;;;11.71;100.00;102290.25;5026908;28;20490;-73
2022/01/01 08:05:15;;;;;;;36.17;13.50;;;;;;;11.73;100.00;102292.72;5018268;28;20863;-74
2022/01/01 08:07:41;;;;;;;35.30;12.55;;;;;;;11.73;100.00;102293.53;5025063;28;20049;-73
2022/01/01 08:10:07;;;;;;;29.92;12.23;;;;;;;11.69;100.00;102302.53;5034312;28;20276;-72
2022/01/01 08:12:33;;;;;;;25.90;11.73;;;;;;;11.67;100.00;102300.09;5018169;28;20095;-71
2022/01/01 08:14:58;;;;;;;32.47;11.52;;;;;;;11.65;100.00;102302.28;5016911;28;20414;-72
2022/01/01 08:17:24;;;;;;;31.13;11.20;;;;;;;11.45;100.00;102302.28;5017171;28;20469;-72
2022/01/01 08:19:50;;;;;;;27.73;11.90;;;;;;;11.56;100.00;102299.28;5026673;28;20036;-72
2022/01/01 08:22:16;;;;;;;31.98;12.40;;;;;;;11.51;100.00;102304.75;5017955;28;20087;-73
2022/01/01 08:24:42;;;;;;;30.08;13.70;;;;;;;11.56;100.00;102312.13;5016236;28;20046;-72
2022/01/01 08:27:07;;;;;;;39.78;13.85;;;;;;;11.56;100.00;102309.41;5015391;28;20490;-72
2022/01/01 08:29:33;;;;;;;36.80;13.98;;;;;;;11.55;100.00;102303.13;5015453;28;20029;-72
2022/01/01 08:31:59;;;;;;;36.50;15.73;;;;;;;11.51;100.00;102302.00;5020822;28;20048;-72
2022/01/01 08:34:25;;;;;;;41.80;17.77;;;;;;;11.56;100.00;102288.34;5035824;28;20114;-71
2022/01/01 08:36:51;;;;;;;43.78;19.65;;;;;;;11.63;100.00;102293.53;5035432;28;20048;-72
2022/01/01 08:39:16;;;;;;;44.90;19.85;;;;;;;11.66;100.00;102289.44;5021554;28;20309;-72
2022/01/01 08:41:43;;;;;;;38.88;18.65;;;;;;;11.67;100.00;102294.63;5029151;28;20038;-72
2022/01/01 08:44:09;;;;;;;38.13;17.90;;;;;;;11.76;100.00;102297.63;5017859;28;20119;-71
2022/01/01 08:46:34;;;;;;;43.08;18.55;;;;;;;11.75;100.00;102291.34;5015770;28;20045;-73
2022/01/01 08:49:00;;;;;;;44.65;19.50;;;;;;;11.88;100.00;102283.69;5017196;28;20366;-72
2022/01/01 08:51:26;;;;;;;40.70;18.83;;;;;;;11.82;100.00;102291.06;5029078;28;20040;-74
2022/01/01 08:53:51;;;;;;;40.17;17.45;;;;;;;12.05;100.00;102291.56;5021735;28;20053;-72
2022/01/01 08:56:17;;;;;;;38.55;15.35;;;;;;;12.17;100.00;102281.94;5032782;28;20040;-73
2022/01/01 08:58:46;;;;;;;29.83;13.25;;;;;;;12.35;100.00;102285.97;5017790;28;20880;-72
2022/01/01 09:01:12;;;;;;;28.55;11.68;;;;;;;12.26;100.00;102284.13;5025552;28;20470;-73
2022/01/01 09:03:37;;;;;;;28.55;10.88;;;;;;;12.56;100.00;102286.69;5015393;28;20039;-72
2022/01/01 09:06:05;;;;;;;29.30;9.95;;;;;;;12.64;100.00;102288.84;5015345;28;20087;-72
2022/01/01 09:08:32;;;;;;;26.45;10.25;;;;;;;12.73;100.00;102293.72;5017850;28;20139;-72
2022/01/01 09:10:57;;;;;;;19.95;8.80;;;;;;;12.75;100.00;102297.00;5027443;28;20049;-72
2022/01/01 09:13:23;;;;;;;34.92;11.20;;;;;;;12.85;100.00;102296.94;5017002;28;20479;-73
2022/01/01 09:15:48;;;;;;;25.25;10.43;;;;;;;12.84;100.00;102304.34;5017780;28;20053;-73
2022/01/01 09:18:14;;;;;;;22.98;9.80;;;;;;;12.83;100.00;102299.16;5021586;28;20036;-73
2022/01/01 09:20:39;;;;;;;16.15;9.30;;;;;;;13.00;100.00;102296.00;5013197;28;20037;-71
2022/01/01 09:23:05;;;;;;;23.85;9.50;;;;;;;12.98;100.00;102300.97;5013517;28;20091;-73
2022/01/01 09:25:30;;;;;;;20.75;8.73;;;;;;;12.96;100.00;102301.25;5030403;28;20036;-72
2022/01/01 09:27:56;;;;;;;26.77;9.50;;;;;;;13.04;100.00;102306.13;5034419;28;20064;-72
2022/01/01 09:30:21;;;;;;;23.45;9.10;;;;;;;12.93;100.00;102292.78;5018160;28;20037;-72
2022/01/01 09:32:47;;;;;;;24.13;9.00;;;;;;;12.98;100.00;102296.31;5018526;28;20387;-72
2022/01/01 09:35:14;;;;;;;20.75;8.90;;;;;;;13.09;100.00;102294.34;5012701;28;20060;-72
2022/01/01 09:37:39;;;;;;;22.73;9.70;;;;;;;13.01;100.00;102294.94;5019173;28;20061;-72
2022/01/01 09:40:05;;;;;;;23.02;7.82;;;;;;;13.06;100.00;102282.03;5033937;28;20102;-72
2022/01/01 09:42:31;;;;;;;24.67;10.15;;;;;;;13.18;100.00;102286.28;5020311;28;20071;-72
2022/01/01 09:44:58;;;;;;;22.27;8.13;;;;;;;13.21;100.00;102280.28;5025830;28;20049;-72
2022/01/01 09:47:24;;;;;;;29.63;9.25;;;;;;;13.18;100.00;102283.56;5018090;28;20041;-72
2022/01/01 09:49:49;;;;;;;19.85;8.43;;;;;;;13.17;100.00;102270.97;5016638;28;20816;-72
2022/01/01 09:52:17;;;;;;;19.75;8.50;;;;;;;13.25;100.00;102273.09;5015037;28;20028;-72
2022/01/01 09:54:43;;;;;;;20.60;7.85;;;;;;;13.26;100.00;102267.34;5011774;28;20496;-73
2022/01/01 09:57:10;;;;;;;17.50;7.68;;;;;;;13.32;100.00;102268.13;5014631;28;20049;-73
2022/01/01 09:59:38;;;;;;;26.58;7.93;;;;;;;13.16;100.00;102266.63;5020886;28;20045;-73
2022/01/01 10:02:03;;;;;;;16.08;7.70;;;;;;;13.02;100.00;102267.25;5014357;28;20037;-72
2022/01/01 10:04:42;;;;;;;18.13;8.32;;;;;;;13.21;100.00;102264.66;5008198;28;20375;-73
2022/01/01 10:07:09;;;;;;;26.98;8.68;;;;;;;13.28;100.00;102267.91;5013696;28;20049;-73
2022/01/01 10:09:37;;;;;;;19.42;7.97;;;;;;;13.43;100.00;102269.69;5014669;28;20029;-72
2022/01/01 10:12:06;;;;;;;22.50;7.80;;;;;;;13.35;100.00;102267.56;5017696;28;20041;-72
2022/01/01 10:14:34;;;;;;;16.48;6.75;;;;;;;13.38;100.00;102261.53;5019676;28;20033;-72
2022/01/01 10:16:59;;;;;;;20.35;7.95;;;;;;;13.31;100.00;102261.03;5030317;28;20048;-72
2022/01/01 10:19:34;;;;;;;21.77;7.50;;;;;;;13.34;100.00;102255.78;5019703;28;20445;-72
2022/01/01 10:22:03;;;;;;;20.45;8.25;;;;;;;13.41;100.00;102250.00;5012850;28;20045;-73
2022/01/01 10:27:42;;;;;;;13.65;6.90;;;;;;;13.29;100.00;102246.78;5012822;28;20033;-72
2022/01/01 10:29:58;;;;;;;12.48;6.53;;;;;;;13.41;100.00;102241.78;5015224;28;20029;-72
2022/01/01 10:32:24;;;;;;;15.23;7.55;;;;;;;13.39;100.00;102241.22;5017023;28;20529;-71
2022/01/01 10:34:49;;;;;;;24.13;7.97;;;;;;;13.51;100.00;102238.91;5019268;28;20856;-72
2022/01/01 10:37:15;;;;;;;15.82;6.53;;;;;;;13.67;100.00;102230.53;5028099;28;20037;-71
2022/01/01 10:39:51;;;;;;;14.07;6.70;;;;;;;13.64;100.00;102225.63;5023744;28;20037;-73
2022/01/01 10:42:18;;;;;;;14.88;6.32;;;;;;;13.73;100.00;102230.22;5018212;28;20044;-72
2022/01/01 10:44:52;;;;;;;14.32;6.45;;;;;;;13.66;100.00;102218.75;5020758;28;20453;-72
2022/01/01 10:47:35;;;;;;;13.68;6.57;;;;;;;13.76;100.00;102212.34;5023457;28;20039;-71
2022/01/01 10:52:39;;;;;;;15.05;5.88;;;;;;;13.78;100.00;102208.19;5025764;28;20098;-72
2022/01/01 10:55:07;;;;;;;11.80;6.28;;;;;;;13.73;100.00;102210.16;5019680;28;20408;-72
2022/01/01 10:57:40;;;;;;;19.33;7.50;;;;;;;13.92;100.00;102212.97;5043045;28;20037;-72
2022/01/01 11:00:21;;;;;;;18.60;6.95;;;;;;;13.92;100.00;102208.31;5043667;28;20040;-72
2022/01/01 11:02:51;;;;;;;13.55;7.18;;;;;;;13.92;100.00;102208.31;5034060;28;20055;-73